Time;durP1;ratioP1;P1;durP2;ratioP2;P2;SDS_P1;SDS_P2;PMS_P1;PMS_P2;Temp;Humidity;BMP_temperature;BMP_pressure;BME280_temperature;BME280_humidity;BME280_pressure;Samples;Min_cycle;Max_cycle;Signal;HPM_P1;HPM_P2
2020/12/05 00:01:00;;;;;;;20.88;13.25;;;;;;;5.61;75.45;97818.55;2107832;82;21289;-79
2020/12/05 00:04:01;;;;;;;19.90;12.63;;;;;;;5.61;75.46;97819.05;2142094;82;21251;-79
2020/12/05 00:07:02;;;;;;;20.62;13.10;;;;;;;5.61;75.51;97820.34;2137978;82;21278;-80
2020/12/05 00:10:03;;;;;;;20.95;12.47;;;;;;;5.63;75.59;97830.06;2133543;82;21667;-80
2020/12/05 00:13:05;;;;;;;21.37;13.13;;;;;;;5.65;75.53;97834.10;2145877;82;21687;-78
2020/12/05 00:16:06;;;;;;;21.42;12.82;;;;;;;5.63;75.56;97830.88;2150062;82;21359;-79
2020/12/05 00:19:07;;;;;;;20.30;13.03;;;;;;;5.64;75.59;97845.47;2131515;83;21385;-79
2020/12/05 00:22:08;;;;;;;21.90;13.75;;;;;;;5.65;75.58;97848.39;2098650;82;21279;-80
2020/12/05 00:25:09;;;;;;;22.48;12.55;;;;;;;5.69;75.52;97858.77;2141426;82;21271;-79
2020/12/05 00:28:10;;;;;;;19.95;11.95;;;;;;;5.69;75.46;97850.98;2129143;82;21131;-80
2020/12/05 00:31:12;;;;;;;20.12;12.90;;;;;;;5.71;75.48;97859.41;2123338;82;21259;-80
2020/12/05 00:34:14;;;;;;;25.30;15.13;;;;;;;5.71;75.48;97857.30;2130040;82;21598;-80
2020/12/05 00:37:15;;;;;;;23.60;14.15;;;;;;;5.71;75.42;97850.32;2151396;82;21540;-79
2020/12/05 00:40:16;;;;;;;17.82;12.18;;;;;;;5.70;75.43;97855.69;2144995;82;21278;-80
2020/12/05 00:43:17;;;;;;;25.20;15.75;;;;;;;5.68;75.42;97864.95;2133376;82;21744;-80
2020/12/05 00:46:18;;;;;;;20.57;12.33;;;;;;;5.66;75.49;97868.67;2157855;82;21551;-80
2020/12/05 00:49:20;;;;;;;19.23;12.60;;;;;;;5.67;75.46;97875.03;2157855;82;21279;-80
2020/12/05 00:52:21;;;;;;;20.52;11.53;;;;;;;5.69;75.44;97881.34;2144652;82;21145;-79
2020/12/05 00:55:22;;;;;;;17.17;11.68;;;;;;;5.68;75.48;97877.13;2160300;82;21092;-79
2020/12/05 00:58:23;;;;;;;20.62;11.73;;;;;;;5.66;75.50;97878.58;2146549;82;21188;-79
2020/12/05 01:01:25;;;;;;;19.87;11.93;;;;;;;5.63;75.61;97871.12;2149620;82;21080;-78
2020/12/05 01:04:26;;;;;;;19.55;11.40;;;;;;;5.63;75.62;97880.22;2156299;82;21318;-79
2020/12/05 01:07:28;;;;;;;16.97;10.93;;;;;;;5.65;75.52;97867.87;2148739;82;21141;-79
2020/12/05 01:10:29;;;;;;;18.57;11.22;;;;;;;5.61;75.59;97874.39;2136670;82;21266;-80
2020/12/05 01:13:30;;;;;;;19.48;12.03;;;;;;;5.60;75.61;97875.86;2146119;82;21140;-79
2020/12/05 01:16:31;;;;;;;20.57;12.60;;;;;;;5.62;75.66;97882.98;2148953;82;21125;-79
2020/12/05 01:19:32;;;;;;;22.27;13.58;;;;;;;5.63;75.61;97882.01;2149049;82;21252;-79
2020/12/05 01:22:33;;;;;;;18.37;12.33;;;;;;;5.65;75.54;97881.34;2148959;82;21106;-78
2020/12/05 01:25:35;;;;;;;20.57;13.40;;;;;;;5.65;75.55;97880.85;2138203;82;21752;-78
2020/12/05 01:28:36;;;;;;;21.10;13.38;;;;;;;5.64;75.52;97877.94;2136699;82;21133;-79
2020/12/05 01:31:37;;;;;;;19.65;12.23;;;;;;;5.62;75.55;97878.60;2161364;82;21104;-80
2020/12/05 01:34:39;;;;;;;18.75;12.63;;;;;;;5.61;75.61;97874.39;2150667;82;21741;-79
2020/12/05 01:37:40;;;;;;;18.85;12.25;;;;;;;5.66;75.54;97882.47;2155808;82;21171;-78
2020/12/05 01:40:42;;;;;;;19.98;12.43;;;;;;;5.68;75.49;97883.63;2143399;82;21255;-80
2020/12/05 01:43:46;;;;;;;18.37;12.05;;;;;;;5.68;75.51;97885.73;2148898;81;21133;-79
2020/12/05 01:46:47;;;;;;;17.82;12.73;;;;;;;5.67;75.57;97888.02;2115963;82;21731;-79
2020/12/05 01:49:48;;;;;;;19.20;12.10;;;;;;;5.64;75.61;97885.73;2139246;82;21633;-78
2020/12/05 01:52:49;;;;;;;21.68;13.20;;;;;;;5.65;75.62;97882.64;2159443;82;21208;-80
2020/12/05 01:55:51;;;;;;;20.72;13.40;;;;;;;5.67;75.61;97873.73;2153376;81;22066;-80
2020/12/05 01:58:52;;;;;;;22.10;13.32;;;;;;;5.69;75.54;97882.64;2149373;82;21592;-78
2020/12/05 02:01:53;;;;;;;18.73;12.03;;;;;;;5.71;75.58;97875.48;2139074;82;21287;-81
2020/12/05 02:04:54;;;;;;;20.85;13.22;;;;;;;5.74;75.57;97877.73;2145435;82;21120;-81
2020/12/05 02:07:55;;;;;;;18.30;12.70;;;;;;;5.74;75.55;97876.93;2133272;82;21250;-79
2020/12/05 02:10:56;;;;;;;20.68;12.90;;;;;;;5.78;75.42;97878.23;2141869;82;21263;-80
2020/12/05 02:13:58;;;;;;;20.65;13.38;;;;;;;5.80;75.38;97875.77;2142330;82;21294;-78
2020/12/05 02:16:59;;;;;;;18.15;11.95;;;;;;;5.83;75.37;97880.62;2142316;82;21275;-79
2020/12/05 02:20:01;;;;;;;18.42;12.75;;;;;;;5.86;75.28;97871.70;2144864;82;21818;-80
2020/12/05 02:23:03;;;;;;;19.92;12.35;;;;;;;5.86;75.36;97880.80;2148136;82;21124;-80
2020/12/05 02:26:04;;;;;;;21.05;13.32;;;;;;;5.87;75.24;97869.41;2140919;82;21275;-81
2020/12/05 02:29:07;;;;;;;20.75;13.32;;;;;;;5.91;75.18;97857.23;2149104;82;22164;-79
2020/12/05 02:32:08;;;;;;;19.77;12.88;;;;;;;5.94;75.16;97870.36;2148614;82;21140;-80
2020/12/05 02:35:09;;;;;;;21.97;13.40;;;;;;;5.96;75.09;97860.14;2148617;82;21580;-79
2020/12/05 02:38:10;;;;;;;20.82;12.15;;;;;;;5.98;75.08;97855.58;2138599;82;21265;-80
2020/12/05 02:41:13;;;;;;;19.37;13.32;;;;;;;6.01;74.94;97863.51;2130849;82;21123;-81
2020/12/05 02:44:14;;;;;;;20.08;13.08;;;;;;;6.04;74.90;97861.08;2165128;82;21660;-79
2020/12/05 02:47:15;;;;;;;18.42;11.55;;;;;;;6.05;74.95;97868.70;2150003;82;21264;-78
2020/12/05 02:50:16;;;;;;;20.23;11.03;;;;;;;6.05;74.88;97863.50;2171295;82;21119;-79
2020/12/05 02:53:18;;;;;;;15.10;11.97;;;;;;;6.05;74.81;97859.61;2150774;82;21283;-80
2020/12/05 02:56:19;;;;;;;23.45;13.05;;;;;;;6.07;74.84;97862.84;2153727;82;21271;-81
2020/12/05 02:59:20;;;;;;;17.23;10.82;;;;;;;6.08;74.79;97865.75;2169195;82;21274;-80
2020/12/05 03:02:22;;;;;;;16.70;11.12;;;;;;;6.10;74.79;97863.78;2163454;82;21781;-79
2020/12/05 03:05:23;;;;;;;19.48;11.93;;;;;;;6.10;74.81;97870.28;2147725;82;21291;-80
2020/12/05 03:08:24;;;;;;;19.32;12.05;;;;;;;6.15;74.85;97867.18;2156010;81;21260;-80
2020/12/05 03:11:25;;;;;;;18.77;13.00;;;;;;;6.18;74.77;97873.33;2159053;82;21266;-79
2020/12/05 03:14:26;;;;;;;19.65;13.40;;;;;;;6.19;74.67;97874.94;2148097;82;21700;-80
2020/12/05 03:17:27;;;;;;;18.05;12.25;;;;;;;6.18;74.73;97875.92;2145628;82;21271;-81
2020/12/05 03:20:28;;;;;;;18.73;11.48;;;;;;;6.18;74.72;97879.33;2172674;82;21147;-79
2020/12/05 03:23:29;;;;;;;19.80;12.68;;;;;;;6.17;74.67;97879.02;2169067;82;21279;-79
2020/12/05 03:26:31;;;;;;;22.07;13.13;;;;;;;6.19;74.70;97887.45;2162425;82;21318;-81
2020/12/05 03:29:32;;;;;;;19.40;12.23;;;;;;;6.19;74.75;97874.45;2147384;82;21264;-79
2020/12/05 03:32:33;;;;;;;17.55;12.70;;;;;;;6.17;74.74;97886.01;2156558;82;21739;-79
2020/12/05 03:35:34;;;;;;;20.55;12.50;;;;;;;6.13;74.68;97876.95;2162608;82;21256;-81
2020/12/05 03:38:36;;;;;;;18.00;12.58;;;;;;;6.12;74.68;97886.50;2140403;82;21234;-81
2020/12/05 03:41:37;;;;;;;21.70;13.00;;;;;;;6.13;74.67;97889.45;2119519;82;21704;-79
2020/12/05 03:44:38;;;;;;;19.25;12.60;;;;;;;6.11;74.74;97879.69;2140532;82;21279;-81
2020/12/05 03:47:39;;;;;;;18.40;12.03;;;;;;;6.09;74.70;97889.95;2141967;82;21609;-79
2020/12/05 03:50:40;;;;;;;17.37;11.48;;;;;;;6.04;74.84;97886.58;2141908;82;21181;-79
2020/12/05 03:53:41;;;;;;;16.62;11.38;;;;;;;6.02;74.91;97885.91;2127003;82;21265;-81
2020/12/05 03:56:43;;;;;;;21.00;13.30;;;;;;;6.03;74.89;97895.81;2154389;82;21101;-81
2020/12/05 03:59:44;;;;;;;21.42;12.23;;;;;;;6.00;75.01;97899.58;2141838;82;21122;-80
2020/12/05 04:02:45;;;;;;;21.02;13.03;;;;;;;5.96;75.10;97887.42;2141159;82;21284;-78
2020/12/05 04:05:47;;;;;;;19.45;12.45;;;;;;;5.94;75.20;97895.05;2131569;82;21141;-81
2020/12/05 04:08:48;;;;;;;20.25;13.65;;;;;;;5.93;75.26;97894.23;2109421;82;21579;-80
2020/12/05 04:11:49;;;;;;;20.97;15.10;;;;;;;5.92;75.20;97887.42;2132712;82;21268;-81
2020/12/05 04:14:50;;;;;;;18.85;13.35;;;;;;;5.93;75.25;97886.45;2118352;82;21162;-80
2020/12/05 04:17:52;;;;;;;20.65;12.10;;;;;;;5.90;75.33;97888.55;2123559;82;21132;-78
2020/12/05 04:20:54;;;;;;;21.27;13.45;;;;;;;5.88;75.42;97887.42;2147832;82;21266;-78
2020/12/05 04:23:56;;;;;;;19.85;12.68;;;;;;;5.89;75.48;97889.53;2133087;82;21285;-81
2020/12/05 04:26:57;;;;;;;18.15;12.50;;;;;;;5.90;75.48;97889.39;2128326;82;21666;-80
2020/12/05 04:29:58;;;;;;;21.42;14.30;;;;;;;5.93;75.50;97890.34;2133884;82;21315;-79
2020/12/05 04:32:59;;;;;;;21.42;12.93;;;;;;;5.91;75.53;97892.30;2136360;82;21302;-80
2020/12/05 04:36:00;;;;;;;20.15;12.65;;;;;;;5.90;75.60;97890.69;2112969;82;21262;-79
2020/12/05 04:39:01;;;;;;;20.45;11.65;;;;;;;5.92;75.57;97891.81;2131749;82;21319;-81
2020/12/05 04:42:02;;;;;;;21.85;14.13;;;;;;;5.96;75.53;97898.31;2144146;82;21263;-79
2020/12/05 04:45:03;;;;;;;19.60;13.55;;;;;;;5.95;75.54;97888.41;2150951;82;21278;-78
2020/12/05 04:48:05;;;;;;;23.75;13.93;;;;;;;5.94;75.59;97895.05;2145282;82;22130;-79
2020/12/05 04:51:06;;;;;;;22.05;12.33;;;;;;;5.95;75.66;97897.99;2149158;82;21289;-80
2020/12/05 04:54:07;;;;;;;19.60;12.25;;;;;;;5.95;75.63;97899.30;2135925;82;21105;-80
2020/12/05 04:57:08;;;;;;;18.45;12.15;;;;;;;5.96;75.61;97899.61;2152944;82;21674;-79
2020/12/05 05:00:09;;;;;;;21.30;13.22;;;;;;;5.96;75.62;97912.60;2164553;81;21156;-80
2020/12/05 05:03:10;;;;;;;21.00;12.40;;;;;;;5.96;75.65;97927.70;2159115;82;21231;-80
2020/12/05 05:06:12;;;;;;;20.35;13.90;;;;;;;5.97;75.71;97920.22;2148868;81;21584;-81
2020/12/05 05:09:13;;;;;;;20.85;13.13;;;;;;;5.98;75.59;97910.14;2149963;82;21257;-81
2020/12/05 05:12:14;;;;;;;20.08;13.20;;;;;;;5.99;75.61;97909.66;2148007;82;21274;-81
2020/12/05 05:15:15;;;;;;;18.02;11.50;;;;;;;5.99;75.63;97909.66;2136485;82;21287;-81
2020/12/05 05:18:17;;;;;;;17.75;11.43;;;;;;;5.97;75.67;97913.73;2124041;82;21614;-79
2020/12/05 05:21:18;;;;;;;20.77;12.58;;;;;;;6.01;75.59;97912.88;2159952;81;22088;-79
2020/12/05 05:24:20;;;;;;;18.85;11.95;;;;;;;6.02;75.60;97921.00;2106829;83;21275;-81
2020/12/05 05:27:21;;;;;;;18.62;12.60;;;;;;;6.04;75.67;97922.16;2150741;82;21502;-81
2020/12/05 05:30:23;;;;;;;18.62;11.33;;;;;;;6.03;75.70;97925.21;2144236;82;21539;-79
2020/12/05 05:33:24;;;;;;;17.48;11.22;;;;;;;6.06;75.64;97922.30;2148646;82;21164;-78
2020/12/05 05:36:26;;;;;;;19.05;11.78;;;;;;;6.09;75.66;97935.44;2157539;82;21119;-81
2020/12/05 05:39:27;;;;;;;18.42;11.78;;;;;;;6.10;75.63;97933.95;2119984;82;21121;-78
2020/12/05 05:42:28;;;;;;;19.87;12.33;;;;;;;6.11;75.65;97939.97;2148619;82;21686;-81
2020/12/05 05:45:29;;;;;;;21.45;14.53;;;;;;;6.08;75.74;97934.63;2138975;82;21294;-79
2020/12/05 05:48:31;;;;;;;23.52;14.53;;;;;;;6.09;75.74;97933.64;2142057;82;21101;-78
2020/12/05 05:51:32;;;;;;;24.52;13.75;;;;;;;6.10;75.74;97932.66;2131098;82;21268;-80
2020/12/05 05:54:34;;;;;;;20.95;13.95;;;;;;;6.14;75.79;97943.05;2114831;82;21194;-78
2020/12/05 05:57:36;;;;;;;16.90;11.33;;;;;;;6.15;75.82;97934.27;2142145;82;21709;-78
2020/12/05 06:00:37;;;;;;;17.32;12.15;;;;;;;6.16;75.84;97936.37;2121099;82;21251;-80
2020/12/05 06:03:39;;;;;;;21.15;12.82;;;;;;;6.19;75.83;97931.64;2152545;82;22101;-78
2020/12/05 06:06:40;;;;;;;19.95;13.55;;;;;;;6.22;75.86;97932.62;2139451;82;21254;-79
2020/12/05 06:09:41;;;;;;;17.42;11.83;;;;;;;6.26;75.84;97933.08;2122914;82;21159;-79
2020/12/05 06:12:42;;;;;;;20.72;12.07;;;;;;;6.28;75.89;97925.41;2122675;83;21580;-78
2020/12/05 06:15:43;;;;;;;18.23;11.70;;;;;;;6.32;75.89;97936.30;2108253;82;21520;-80
2020/12/05 06:18:44;;;;;;;20.45;13.53;;;;;;;6.38;75.78;97942.09;2138366;82;21277;-80
2020/12/05 06:21:45;;;;;;;21.10;13.08;;;;;;;6.43;75.75;97937.70;2148707;82;21247;-80
2020/12/05 06:24:46;;;;;;;14.07;10.72;;;;;;;6.44;75.71;97941.91;2124953;83;21665;-80
2020/12/05 06:27:48;;;;;;;16.40;10.65;;;;;;;6.46;75.69;97951.16;2106185;82;21304;-77
2020/12/05 06:30:49;;;;;;;22.70;13.83;;;;;;;6.49;75.55;97948.23;2136357;82;21153;-79
2020/12/05 06:33:50;;;;;;;16.55;11.83;;;;;;;6.52;75.56;97942.67;2141972;82;21700;-78
2020/12/05 06:36:51;;;;;;;20.30;12.93;;;;;;;6.52;75.58;97936.17;2138523;82;21301;-79
2020/12/05 06:39:52;;;;;;;19.20;12.58;;;;;;;6.52;75.64;97946.58;2148592;81;21295;-78
2020/12/05 06:42:54;;;;;;;18.05;12.58;;;;;;;6.56;75.55;97953.53;2149707;81;21282;-78
2020/12/05 06:45:55;;;;;;;22.52;14.93;;;;;;;6.59;75.46;97953.70;2150943;81;21132;-77
2020/12/05 06:48:56;;;;;;;21.15;13.32;;;;;;;6.62;75.44;97963.25;2174839;81;21588;-78
2020/12/05 06:51:57;;;;;;;19.07;12.93;;;;;;;6.64;75.42;97962.59;2171543;81;21148;-78
2020/12/05 06:54:58;;;;;;;22.65;13.53;;;;;;;6.67;75.30;97970.53;2160454;81;21307;-78
2020/12/05 06:58:00;;;;;;;20.95;13.55;;;;;;;6.68;75.19;97962.58;2183223;81;21262;-77
2020/12/05 07:01:01;;;;;;;22.80;13.62;;;;;;;6.70;75.15;97972.80;2166633;81;21704;-78
2020/12/05 07:04:02;;;;;;;18.70;12.63;;;;;;;6.66;75.10;97958.02;2165442;81;21290;-77
2020/12/05 07:07:03;;;;;;;18.12;11.68;;;;;;;6.67;75.22;97954.92;2154973;81;21308;-76
2020/12/05 07:10:05;;;;;;;21.23;13.30;;;;;;;6.69;75.16;97960.78;2173938;81;21252;-80
2020/12/05 07:13:06;;;;;;;23.07;14.98;;;;;;;6.68;75.17;97963.88;2172646;81;21725;-78
2020/12/05 07:16:08;;;;;;;19.10;12.35;;;;;;;6.68;75.32;97966.48;2174040;81;21710;-78
2020/12/05 07:19:09;;;;;;;17.25;12.07;;;;;;;6.70;75.24;97967.60;2182574;81;21278;-76
2020/12/05 07:22:10;;;;;;;19.65;13.40;;;;;;;6.74;75.30;97978.78;2168306;80;21705;-78
2020/12/05 07:25:12;;;;;;;18.82;13.98;;;;;;;6.76;75.20;97988.52;2173876;81;21307;-80
2020/12/05 07:28:13;;;;;;;21.10;12.98;;;;;;;6.79;75.30;97982.17;2148729;81;21282;-80
2020/12/05 07:31:16;;;;;;;17.05;12.90;;;;;;;6.79;75.28;97984.28;2185732;81;21269;-77
2020/12/05 07:34:18;;;;;;;22.75;13.15;;;;;;;6.82;75.28;97989.13;2178195;80;22089;-77
2020/12/05 07:37:20;;;;;;;20.10;12.78;;;;;;;6.86;75.22;97993.52;2156904;81;21281;-77
2020/12/05 07:40:21;;;;;;;21.12;13.85;;;;;;;6.92;75.22;98006.31;2134999;82;21278;-75
2020/12/05 07:43:22;;;;;;;19.95;12.85;;;;;;;6.94;75.07;97999.94;2135204;82;21580;-76
2020/12/05 07:46:24;;;;;;;20.08;13.43;;;;;;;7.01;75.04;97998.77;2140897;82;21277;-77
2020/12/05 07:49:25;;;;;;;19.75;13.80;;;;;;;7.09;74.90;97993.01;2120585;82;21290;-76
2020/12/05 07:52:27;;;;;;;18.05;14.18;;;;;;;7.15;74.56;98000.62;2139029;82;21081;-75
2020/12/05 07:55:29;;;;;;;19.10;11.88;;;;;;;7.21;74.50;98011.62;2137467;82;21552;-76
2020/12/05 07:58:30;;;;;;;17.15;11.80;;;;;;;7.27;74.44;98008.33;2123385;82;21123;-76
2020/12/05 08:01:31;;;;;;;22.85;14.58;;;;;;;7.35;74.14;98023.89;2129803;82;21139;-78
2020/12/05 08:04:33;;;;;;;24.00;15.28;;;;;;;7.44;74.21;98028.53;2130957;81;21119;-80
2020/12/05 08:07:35;;;;;;;23.80;14.28;;;;;;;7.54;74.06;98023.89;2140808;82;21714;-80
2020/12/05 08:10:36;;;;;;;19.55;13.05;;;;;;;7.60;73.93;98024.98;2122431;82;21267;-79
2020/12/05 08:13:38;;;;;;;20.00;12.63;;;;;;;7.64;73.59;98024.44;2136049;82;21124;-78
2020/12/05 08:16:39;;;;;;;21.07;13.80;;;;;;;7.69;73.41;98016.91;2135391;82;21288;-77
2020/12/05 08:19:41;;;;;;;22.32;14.38;;;;;;;7.75;73.41;98020.58;2129356;82;21121;-77
2020/12/05 08:22:42;;;;;;;22.07;13.88;;;;;;;7.82;73.32;98029.31;2128197;82;21160;-80
2020/12/05 08:25:43;;;;;;;16.87;12.53;;;;;;;7.91;73.35;98036.56;2131037;82;21116;-79
2020/12/05 08:28:46;;;;;;;19.60;14.05;;;;;;;8.02;73.13;98036.61;2129770;82;21135;-77
2020/12/05 08:31:47;;;;;;;18.87;14.60;;;;;;;8.12;73.01;98023.61;2122377;82;21120;-77
2020/12/05 08:34:49;;;;;;;19.10;12.93;;;;;;;8.24;73.03;98036.53;2127261;82;21116;-77
2020/12/05 08:37:51;;;;;;;21.25;13.38;;;;;;;8.33;72.14;98027.31;2109904;81;21235;-77
2020/12/05 08:40:52;;;;;;;18.02;12.73;;;;;;;8.41;72.49;98041.56;2133055;81;21329;-77
2020/12/05 08:43:53;;;;;;;19.62;13.28;;;;;;;8.48;72.51;98049.78;2163223;82;21140;-76
2020/12/05 08:46:54;;;;;;;14.20;11.65;;;;;;;8.54;72.19;98054.29;2134085;82;21845;-77
2020/12/05 08:49:56;;;;;;;18.60;12.07;;;;;;;8.62;71.81;98041.64;2148668;82;21172;-79
2020/12/05 08:52:57;;;;;;;17.80;12.68;;;;;;;8.67;72.01;98049.70;2165442;82;21126;-81
2020/12/05 08:56:00;;;;;;;19.27;13.25;;;;;;;8.77;71.97;98048.92;2154382;82;21175;-78
2020/12/05 08:59:01;;;;;;;16.35;12.53;;;;;;;8.86;71.70;98047.00;2139326;82;21117;-77
2020/12/05 09:02:03;;;;;;;21.42;13.62;;;;;;;8.93;71.69;98046.58;2153377;82;21305;-77
2020/12/05 09:05:04;;;;;;;21.65;13.95;;;;;;;8.99;71.84;98042.44;2140315;82;21255;-82
2020/12/05 09:08:06;;;;;;;18.82;13.38;;;;;;;9.01;71.63;98040.45;2177557;80;21568;-80
2020/12/05 09:11:08;;;;;;;20.62;13.65;;;;;;;9.05;71.77;98046.43;2148634;82;21165;-82
2020/12/05 09:14:09;;;;;;;20.30;14.03;;;;;;;9.09;71.03;98049.47;2152373;81;21572;-81
2020/12/05 09:17:10;;;;;;;19.87;13.50;;;;;;;9.13;71.64;98063.76;2156124;82;21156;-80
2020/12/05 09:20:12;;;;;;;17.23;12.35;;;;;;;9.17;71.43;98071.55;2143730;82;21132;-81
2020/12/05 09:23:15;;;;;;;18.77;11.65;;;;;;;9.19;70.98;98066.13;2148542;82;21129;-81
2020/12/05 09:26:17;;;;;;;19.52;14.43;;;;;;;9.24;71.48;98080.27;2153493;82;21147;-80
2020/12/05 09:29:18;;;;;;;20.27;14.10;;;;;;;9.32;71.07;98074.08;2146648;82;21310;-78
2020/12/05 09:32:21;;;;;;;18.27;13.50;;;;;;;9.38;70.73;98072.05;2144825;82;21143;-80
2020/12/05 09:35:23;;;;;;;20.55;14.58;;;;;;;9.45;70.49;98065.58;2142444;82;21129;-78
2020/12/05 09:38:25;;;;;;;17.80;12.53;;;;;;;9.44;70.66;98076.53;2154038;81;21128;-79
2020/12/05 09:41:26;;;;;;;17.40;12.43;;;;;;;9.45;70.82;98072.11;2146691;82;21253;-80
2020/12/05 09:44:27;;;;;;;20.20;14.03;;;;;;;9.42;70.20;98068.08;2146378;82;21296;-78
2020/12/05 09:47:29;;;;;;;18.45;14.30;;;;;;;9.38;70.21;98066.81;2177200;82;21151;-79
2020/12/05 09:50:31;;;;;;;17.60;12.47;;;;;;;9.36;70.84;98069.62;2143766;82;21159;-77
2020/12/05 09:53:33;;;;;;;17.67;12.53;;;;;;;9.33;70.73;98070.50;2140988;82;21678;-78
2020/12/05 09:56:34;;;;;;;17.87;12.70;;;;;;;9.31;70.44;98066.75;2150260;82;21316;-82
2020/12/05 09:59:36;;;;;;;17.67;13.05;;;;;;;9.29;70.64;98066.13;2148801;82;21310;-80
2020/12/05 10:02:37;;;;;;;16.80;12.25;;;;;;;9.30;70.81;98065.63;2162054;82;21528;-81
2020/12/05 10:05:38;;;;;;;18.32;12.93;;;;;;;9.31;70.69;98075.08;2157862;82;21281;-82
2020/12/05 10:08:39;;;;;;;22.05;14.47;;;;;;;9.33;71.08;98069.20;2162282;82;21690;-80
2020/12/05 10:11:41;;;;;;;18.23;12.80;;;;;;;9.33;70.99;98070.50;2162415;82;21123;-81
2020/12/05 10:14:42;;;;;;;15.72;12.23;;;;;;;9.37;71.12;98078.27;2151635;82;21547;-84
2020/12/05 10:17:44;;;;;;;19.92;13.55;;;;;;;9.43;70.89;98084.06;2157020;82;21658;-77
2020/12/05 10:20:45;;;;;;;20.43;14.03;;;;;;;9.46;70.93;98086.79;2158280;80;21304;-77
2020/12/05 10:23:47;;;;;;;18.70;12.73;;;;;;;9.50;71.17;98092.75;2157808;81;21246;-79
2020/12/05 10:26:50;;;;;;;20.88;15.23;;;;;;;9.55;71.06;98086.97;2141596;82;21738;-79
2020/12/05 10:29:51;;;;;;;24.25;15.95;;;;;;;9.57;70.82;98074.52;2158523;82;21257;-78
2020/12/05 10:32:52;;;;;;;20.97;15.43;;;;;;;9.61;70.76;98079.70;2165761;82;21269;-78
2020/12/05 10:35:54;;;;;;;20.17;14.15;;;;;;;9.66;70.92;98075.50;2153190;82;21291;-82
2020/12/05 10:38:55;;;;;;;19.40;13.85;;;;;;;9.72;71.05;98070.53;2144238;80;21262;-78
2020/12/05 10:41:56;;;;;;;24.32;15.35;;;;;;;9.72;70.71;98067.91;2133630;82;21542;-79
2020/12/05 10:44:58;;;;;;;19.23;13.35;;;;;;;9.73;70.74;98062.98;2140001;82;21334;-82
2020/12/05 10:47:59;;;;;;;21.75;15.40;;;;;;;9.75;70.78;98069.64;2143510;82;21719;-84
2020/12/05 10:51:01;;;;;;;17.70;13.88;;;;;;;9.78;71.02;98072.36;2145600;82;21127;-81
2020/12/05 10:54:02;;;;;;;24.02;16.00;;;;;;;9.79;70.89;98066.97;2142851;82;21297;-76
2020/12/05 10:57:03;;;;;;;25.08;16.62;;;;;;;9.79;70.93;98066.97;2137860;82;21791;-79
2020/12/05 11:00:04;;;;;;;20.00;13.58;;;;;;;9.77;71.15;98062.41;2141743;82;21203;-77
2020/12/05 11:03:06;;;;;;;22.13;15.00;;;;;;;9.81;70.90;98057.13;2149040;82;21101;-76
2020/12/05 11:06:08;;;;;;;19.20;13.83;;;;;;;9.86;71.00;98065.69;2157451;82;21108;-78
2020/12/05 11:09:09;;;;;;;18.98;12.75;;;;;;;9.91;71.25;98063.33;2145232;82;21128;-79
2020/12/05 11:12:11;;;;;;;18.40;13.05;;;;;;;9.94;70.94;98059.01;2137837;82;21710;-79
2020/12/05 11:15:12;;;;;;;16.10;11.12;;;;;;;9.98;70.97;98067.61;2143179;82;21216;-77
2020/12/05 11:18:13;;;;;;;15.18;11.78;;;;;;;10.05;71.00;98077.28;2151283;82;21714;-77
2020/12/05 11:21:15;;;;;;;18.15;12.10;;;;;;;10.11;70.94;98079.95;2122817;82;21266;-79
2020/12/05 11:24:16;;;;;;;14.87;11.85;;;;;;;10.18;70.98;98089.96;2142515;82;21254;-80
2020/12/05 11:27:18;;;;;;;15.08;11.48;;;;;;;10.22;70.78;98091.72;2147858;81;21626;-81
2020/12/05 11:30:20;;;;;;;18.57;12.47;;;;;;;10.25;70.76;98097.39;2163801;81;21165;-81
2020/12/05 11:33:21;;;;;;;18.37;11.60;;;;;;;10.26;70.97;98104.73;2142341;82;21271;-78
2020/12/05 11:36:22;;;;;;;14.38;11.43;;;;;;;10.27;70.85;98105.05;2164847;82;21163;-79
2020/12/05 11:39:29;;;;;;;20.02;12.00;;;;;;;10.27;70.65;98094.58;2143331;81;21253;-80
2020/12/05 11:42:39;;;;;;;17.42;12.47;;;;;;;10.29;70.44;98106.95;2150048;81;21308;-80
2020/12/05 11:45:40;;;;;;;17.30;13.08;;;;;;;10.28;70.74;98105.84;2155195;81;21254;-80
2020/12/05 11:48:41;;;;;;;18.23;12.78;;;;;;;10.28;70.67;98107.16;2159416;81;21188;-78
2020/12/05 11:51:43;;;;;;;17.32;11.97;;;;;;;10.23;70.74;98108.52;2183634;81;21668;-79
2020/12/05 11:54:45;;;;;;;16.42;11.38;;;;;;;10.20;70.92;98115.42;2176681;81;21100;-80
2020/12/05 11:57:47;;;;;;;14.68;10.58;;;;;;;10.18;70.84;98116.63;2178912;81;21319;-80
2020/12/05 12:00:50;;;;;;;16.85;12.18;;;;;;;10.18;70.98;98108.28;2161549;81;21295;-78
2020/12/05 12:03:52;;;;;;;14.93;10.98;;;;;;;10.19;70.94;98105.16;2170562;81;21154;-80
2020/12/05 12:06:56;;;;;;;18.80;12.10;;;;;;;10.19;70.91;98110.39;2173412;80;21238;-78
2020/12/05 12:09:57;;;;;;;16.25;11.28;;;;;;;10.17;70.88;98113.20;2182511;81;21253;-80
2020/12/05 12:13:05;;;;;;;15.35;10.78;;;;;;;10.15;70.88;98111.28;2164035;82;21728;-80
2020/12/05 12:16:06;;;;;;;15.28;10.90;;;;;;;10.13;71.06;98105.91;2152273;81;21278;-78
2020/12/05 12:19:07;;;;;;;15.80;11.15;;;;;;;10.13;71.15;98107.22;2178507;81;21299;-79
2020/12/05 12:22:08;;;;;;;13.15;10.45;;;;;;;10.15;71.25;98099.98;2169400;81;21146;-78
2020/12/05 12:25:10;;;;;;;15.78;11.68;;;;;;;10.15;71.10;98108.67;2170767;80;21266;-80
2020/12/05 12:28:11;;;;;;;16.23;10.58;;;;;;;10.16;71.21;98100.31;2132925;81;21131;-78
2020/12/05 12:31:12;;;;;;;13.60;10.15;;;;;;;10.13;71.19;98108.53;2139020;81;21135;-80
2020/12/05 12:34:14;;;;;;;12.63;10.40;;;;;;;10.13;71.14;98096.76;2169421;81;21674;-78
2020/12/05 12:37:16;;;;;;;16.57;11.05;;;;;;;10.16;70.96;98096.39;2176702;81;21111;-78
2020/12/05 12:40:17;;;;;;;15.63;11.43;;;;;;;10.16;71.05;98097.70;2166911;81;21723;-81
2020/12/05 12:43:19;;;;;;;15.88;12.05;;;;;;;10.17;70.81;98110.59;2129288;82;21159;-78
2020/12/05 12:46:22;;;;;;;16.15;11.38;;;;;;;10.18;70.88;98108.78;2140286;82;21247;-78
2020/12/05 12:49:23;;;;;;;17.00;11.60;;;;;;;10.17;70.98;98115.82;2155545;82;21132;-81
2020/12/05 12:52:25;;;;;;;19.82;12.88;;;;;;;10.15;70.99;98111.75;2148660;81;21303;-80
2020/12/05 12:55:26;;;;;;;15.75;11.15;;;;;;;10.16;71.11;98122.55;2148670;81;21121;-80
2020/12/05 12:58:34;;;;;;;21.87;13.40;;;;;;;10.15;71.12;98129.59;2158919;82;21139;-78
2020/12/05 13:01:35;;;;;;;23.87;15.23;;;;;;;10.15;71.25;98125.67;2144449;82;21479;-79
2020/12/05 13:04:36;;;;;;;21.20;14.47;;;;;;;10.13;71.28;98136.80;2148600;82;22033;-80
2020/12/05 13:07:37;;;;;;;19.00;12.90;;;;;;;10.12;71.26;98137.80;2148783;81;21294;-80
2020/12/05 13:10:38;;;;;;;19.05;12.10;;;;;;;10.12;71.30;98154.81;2160775;81;21588;-81
2020/12/05 13:13:40;;;;;;;17.00;12.68;;;;;;;10.13;71.13;98156.42;2158637;82;21123;-80
2020/12/05 13:16:41;;;;;;;21.90;13.88;;;;;;;10.15;71.10;98164.91;2137578;82;21141;-81
2020/12/05 13:19:42;;;;;;;18.20;12.78;;;;;;;10.16;71.21;98174.38;2133412;82;21695;-80
2020/12/05 13:22:43;;;;;;;21.17;13.53;;;;;;;10.17;71.14;98180.41;2148377;82;21165;-81
2020/12/05 13:25:45;;;;;;;19.07;13.03;;;;;;;10.15;71.33;98183.22;2167125;82;21123;-79
2020/12/05 13:28:46;;;;;;;17.90;11.90;;;;;;;10.13;71.36;98190.93;2143540;82;21307;-77
2020/12/05 13:31:47;;;;;;;18.57;12.60;;;;;;;10.10;71.32;98196.05;2141944;82;21681;-81
2020/12/05 13:34:48;;;;;;;20.23;12.73;;;;;;;10.08;71.48;98199.86;2133329;82;21290;-80
2020/12/05 13:37:50;;;;;;;20.85;14.45;;;;;;;10.07;71.36;98201.67;2138923;82;21687;-78
2020/12/05 13:40:51;;;;;;;18.48;12.55;;;;;;;10.07;71.52;98211.33;2145362;81;21580;-81
2020/12/05 13:43:54;;;;;;;21.97;14.47;;;;;;;10.06;71.36;98205.75;2106367;82;21109;-79
2020/12/05 13:46:55;;;;;;;19.20;13.00;;;;;;;10.00;71.56;98214.38;2140210;82;21260;-81
2020/12/05 13:49:57;;;;;;;25.25;15.70;;;;;;;9.89;71.64;98208.66;2144886;82;21125;-80
2020/12/05 13:53:00;;;;;;;26.42;16.10;;;;;;;9.84;71.83;98216.23;2144489;82;21271;-77
2020/12/05 13:56:02;;;;;;;23.47;16.00;;;;;;;9.79;71.97;98212.58;2160680;82;21581;-78
2020/12/05 13:59:04;;;;;;;22.05;14.43;;;;;;;9.75;72.05;98225.69;2133702;82;21270;-77
2020/12/05 14:02:05;;;;;;;22.82;13.43;;;;;;;9.72;72.12;98225.58;2154516;82;21163;-79